Архив погоды в Шимановске

Метеограмма Шимановск
Среда, 19 Сентября
Время местн. Темп Ветер Видим Явления Облачность нижн/средн/верх Атм. давл. Влжн Точка росы ВНГО R Сост. почвы Tg s
Напр Скр Прв ур.ст ур.м изм
21:00 +7.1° штиль 0 - - - облачно с прояснениями 736 761 +0.7 82% +4.3° более 2.5 км 0 - - -
18:00 +18.1° штиль 0 - 50 км - переменная облачность 735 759 -1.4 41% +4.8° более 2.5 км - - - -
15:00 +20.3° штиль 0 - более 50 км - переменная облачность 735 760 -1 26% +0.1° более 2.5 км - - - -
12:00 +14.5° С 2 - 50 км - незначительная облачность 737 762 0 50% +4.1° более 2.5 км - - - -
09:00 +9.3° штиль 0 - более 50 км - ясно 737 761 +0.2 71% +4.3° более 2.5 км 0 Влажная (без луж) -1° -
06:00 -1.2° штиль 0 - - - ясно 737 763 +0.5 96% -1.8° более 2.5 км - - - -
03:00 -0.3° штиль 0 - - - ясно 736 762 +0.5 98% -0.6° более 2.5 км - - - -
00:00 +1.2° штиль 0 - - - ясно 736 762 +0.1 94% +0.4° более 2.5 км - - - -
Вторник, 18 Сентября
Время местн. Темп Ветер Видим Явления Облачность нижн/средн/верх Атм. давл. Влжн Точка росы ВНГО R Сост. почвы Tg s
Напр Скр Прв ур.ст ур.м изм
21:00 +4.5° штиль 0 - - - ясно 736 761 +1 89% +2.8° более 2.5 км 0 - - -
18:00 +14.2° С-З 2 - более 50 км - переменная облачность 735 759 +0.1 45% +2.5° 1 км - - - -
15:00 +17.3° С-З 6 - 50 км - облачно с прояснениями 735 759 -0.3 31% 1 км - - - -
12:00 +20° С-З 6 - 50 км - переменная облачность 735 759 -0.5 30% +2° более 2.5 км - - - -
09:00 +13.7° С-З 4 - 50 км - ясно 735 760 +0.2 46% +2.4° более 2.5 км 0 Сухая (без трещин) - -
06:00 +4.9° З 3 - - - ясно 735 761 +0.4 75% +0.8° более 2.5 км - - - -
03:00 +6.3° З,С-З 2 - - - ясно 735 760 +0.6 72% +1.6° более 2.5 км - - - -
00:00 +8° З,С-З 3 - - - ясно 734 759 +0.4 67% +2.2° более 2.5 км - - - -
Понедельник, 17 Сентября
Время местн. Темп Ветер Видим Явления Облачность нижн/средн/верх Атм. давл. Влжн Точка росы ВНГО R Сост. почвы Tg s
Напр Скр Прв ур.ст ур.м изм
21:00 +9° штиль 0 - - - ясно 734 759 +1 66% +2.9° более 2.5 км 0 - - -
18:00 +14.1° З,С-З 2 - 50 км - переменная облачность 733 757 +0.9 48% +3.2° 1.5 км - - - -
15:00 +15.2° З,С-З 6 12 более 50 км - переменная облачность 732 756 +0.8 41% +2.2° 1.5 км - - - -
12:00 +13.4° З,С-З 5 - 50 км - переменная облачность 731 756 +0.4 51% +3.4° 1.5 км - - - -
09:00 +8.4° З,С-З 5 11 более 50 км - облачно 731 756 +0.8 66% +2.5° более 2.5 км 0 Влажная (без луж) +3° -
06:00 +5.7° З,С-З 3 - 50 км - переменная облачность 730 755 +0.6 77% +2° - - - - -
03:00 +6.8° З 3 - - - облачно 729 755 0 75% +2.7° более 2.5 км - - - -
00:00 +8.2° З 4 - - - облачно 729 754 -0.6 71% +3.3° 1 км - - - -
Воскресенье, 16 Сентября
Время местн. Темп Ветер Видим Явления Облачность нижн/средн/верх Атм. давл. Влжн Точка росы ВНГО R Сост. почвы Tg s
Напр Скр Прв ур.ст ур.м изм
21:00 +7.7° Ю-З 2 - - - облачно 730 755 +0.3 79% +4.3° 1 км 0 - - -
18:00 +9.1° З 4 - 50 км - облачно 730 755 +0.8 69% +3.8° 1 км - - - -